Time;durP1;ratioP1;P1;durP2;ratioP2;P2;SDS_P1;SDS_P2;PMS_P1;PMS_P2;Temp;Humidity;BMP_temperature;BMP_pressure;BME280_temperature;BME280_humidity;BME280_pressure;Samples;Min_cycle;Max_cycle;Signal;HPM_P1;HPM_P2
2023/02/26 00:02:29;;;;;;;;;;;;;;;-0.70;88.49;99230.63;133697;1301;23349;-77
2023/02/26 00:05:29;;;;;;;;;;;;;;;-0.71;88.28;99236.97;133704;1301;22563;-77
2023/02/26 00:08:30;;;;;;;;;;;;;;;-0.72;88.18;99236.85;133678;1300;22453;-77
2023/02/26 00:11:31;;;;;;;;;;;;;;;-0.72;88.22;99239.48;133676;1307;23203;-77
2023/02/26 00:14:31;;;;;;;;;;;;;;;-0.73;88.10;99240.58;133742;1300;22583;-77
2023/02/26 00:17:44;;;;;;;;;;;;;;;-0.73;88.15;99243.60;133670;1300;22528;-77
2023/02/26 00:20:45;;;;;;;;;;;;;;;-0.75;88.04;99245.98;133715;1300;22491;-77
2023/02/26 00:23:45;;;;;;;;;;;;;;;-0.76;87.98;99247.11;133722;1300;22591;-77
2023/02/26 00:26:49;;;;;;;;;;;;;;;-0.78;87.95;99248.61;133690;1300;22515;-77
2023/02/26 00:29:54;;;;;;;;;;;;;;;-0.80;87.64;99252.75;133544;1301;22489;-77
2023/02/26 00:32:56;;;;;;;;;;;;;;;-0.80;87.94;99254.23;133744;1300;23115;-77
2023/02/26 00:36:16;;;;;;;;;;;;;;;-0.82;87.82;99252.94;133699;1300;22533;-77
2023/02/26 00:39:16;;;;;;;;;;;;;;;-0.85;87.75;99259.80;133655;1300;22527;-77
2023/02/26 00:42:17;;;;;;;;;;;;;;;-0.88;87.55;99266.55;133669;1292;22559;-77
2023/02/26 00:45:18;;;;;;;;;;;;;;;-0.90;87.58;99269.52;133679;1308;22718;-77
2023/02/26 00:48:21;;;;;;;;;;;;;;;-0.91;87.54;99273.89;133508;1306;22488;-77
2023/02/26 00:51:25;;;;;;;;;;;;;;;-0.91;87.83;99275.42;133467;1303;22498;-78
2023/02/26 00:54:27;;;;;;;;;;;;;;;-0.89;87.58;99273.27;133488;1302;22561;-77
2023/02/26 00:57:27;;;;;;;;;;;;;;;-0.88;87.92;99274.61;133715;1300;22522;-77
2023/02/26 01:00:28;;;;;;;;;;;;;;;-0.90;87.76;99274.86;133664;1304;22582;-77
2023/02/26 01:03:30;;;;;;;;;;;;;;;-0.92;87.59;99271.88;133677;1300;22547;-77
2023/02/26 01:06:32;;;;;;;;;;;;;;;-0.94;87.26;99279.02;133678;1300;23398;-77
2023/02/26 01:09:34;;;;;;;;;;;;;;;-0.98;87.23;99282.59;133662;1301;22582;-77
2023/02/26 01:12:37;;;;;;;;;;;;;;;-1.00;87.51;99288.98;133696;1300;22484;-77
2023/02/26 01:15:38;;;;;;;;;;;;;;;-1.03;87.43;99293.77;133677;1301;23280;-77
2023/02/26 01:18:47;;;;;;;;;;;;;;;-1.04;87.44;99303.54;133693;1300;22482;-77
2023/02/26 01:21:52;;;;;;;;;;;;;;;-1.04;87.78;99309.58;133663;1300;22484;-77
2023/02/26 01:25:00;;;;;;;;;;;;;;;-1.02;87.46;99308.77;133602;1300;23209;-77
2023/02/26 01:28:01;;;;;;;;;;;;;;;-1.02;87.82;99305.96;133681;1300;22479;-77
2023/02/26 01:31:04;;;;;;;;;;;;;;;-1.02;87.89;99311.19;133663;1301;22534;-78
2023/02/26 01:34:18;;;;;;;;;;;;;;;-1.02;88.02;99313.60;133706;1300;22457;-77
2023/02/26 01:37:21;;;;;;;;;;;;;;;-1.02;88.03;99314.46;133718;1300;23181;-76
2023/02/26 01:40:35;;;;;;;;;;;;;;;-1.02;88.15;99319.02;133698;1301;22498;-77
2023/02/26 01:43:44;;;;;;;;;;;;;;;-1.02;88.21;99323.84;133529;1300;22506;-77
2023/02/26 01:46:51;;;;;;;;;;;;;;;-1.00;88.48;99328.96;133394;1308;22574;-77
2023/02/26 01:49:51;;;;;;;;;;;;;;;-0.99;88.32;99328.66;133548;1301;22467;-77
2023/02/26 01:53:14;;;;;;;;;;;;;;;-1.00;88.38;99331.73;133722;1300;22487;-77
2023/02/26 01:56:17;;;;;;;;;;;;;;;-0.99;88.24;99334.56;133681;1300;23245;-77
2023/02/26 01:59:23;;;;;;;;;;;;;;;-0.99;88.49;99339.94;133675;1300;22468;-77
2023/02/26 02:02:24;;;;;;;;;;;;;;;-0.99;88.46;99346.52;133690;1300;22491;-77
2023/02/26 02:05:30;;;;;;;;;;;;;;;-0.98;88.43;99351.14;133617;1300;22483;-77
2023/02/26 02:08:34;;;;;;;;;;;;;;;-0.96;88.43;99353.64;133524;1304;22504;-77
2023/02/26 02:11:39;;;;;;;;;;;;;;;-0.96;88.61;99359.35;133623;1300;22496;-77
2023/02/26 02:14:58;;;;;;;;;;;;;;;-0.96;88.54;99363.15;133596;1300;22497;-77
2023/02/26 02:18:01;;;;;;;;;;;;;;;-0.94;88.43;99373.47;133696;1300;22472;-77
2023/02/26 02:21:18;;;;;;;;;;;;;;;-0.93;88.44;99375.58;133706;1301;22490;-77
2023/02/26 02:24:41;;;;;;;;;;;;;;;-0.92;88.42;99375.37;133686;1300;22537;-77
2023/02/26 02:27:44;;;;;;;;;;;;;;;-0.92;88.35;99376.96;133645;1300;23651;-77
2023/02/26 02:31:05;;;;;;;;;;;;;;;-0.93;88.46;99382.89;133324;1301;22498;-77
2023/02/26 02:34:06;;;;;;;;;;;;;;;-0.92;88.42;99387.48;133662;1300;23078;-77
2023/02/26 02:37:06;;;;;;;;;;;;;;;-0.91;88.24;99389.52;133664;1300;23229;-77
2023/02/26 02:40:10;;;;;;;;;;;;;;;-0.91;88.27;99391.45;133683;1300;22491;-77
2023/02/26 02:43:19;;;;;;;;;;;;;;;-0.90;88.45;99401.10;133434;1303;22479;-77
2023/02/26 02:46:29;;;;;;;;;;;;;;;-0.88;88.49;99402.23;133576;1301;22520;-77
2023/02/26 02:49:40;;;;;;;;;;;;;;;-0.87;88.22;99408.24;133624;1300;22484;-76
2023/02/26 02:52:43;;;;;;;;;;;;;;;-0.86;88.61;99407.98;133611;1301;22508;-77
2023/02/26 02:56:05;;;;;;;;;;;;;;;-0.86;88.21;99409.19;133661;1300;22497;-77
2023/02/26 02:59:15;;;;;;;;;;;;;;;-0.88;88.04;99411.40;133698;1301;22475;-77
2023/02/26 03:02:20;;;;;;;;;;;;;;;-0.89;87.90;99416.16;133718;1300;22463;-77
2023/02/26 03:05:20;;;;;;;;;;;;;;;-0.92;87.66;99423.09;133670;1308;22563;-77
2023/02/26 03:08:22;;;;;;;;;;;;;;;-0.91;87.87;99432.98;133659;1300;22493;-76
2023/02/26 03:11:23;;;;;;;;;;;;;;;-0.91;87.96;99438.52;133707;1300;22551;-77
2023/02/26 03:14:24;;;;;;;;;;;;;;;-0.93;87.62;99443.84;133690;1300;22598;-77
2023/02/26 03:17:31;;;;;;;;;;;;;;;-0.94;87.49;99450.14;133554;1301;23265;-77
2023/02/26 03:20:38;;;;;;;;;;;;;;;-0.93;87.64;99453.21;133712;1301;23225;-77
2023/02/26 03:23:44;;;;;;;;;;;;;;;-0.93;87.60;99462.41;133676;1300;22508;-77
2023/02/26 03:27:07;;;;;;;;;;;;;;;-0.94;87.32;99460.42;133728;1300;22473;-77
2023/02/26 03:30:08;;;;;;;;;;;;;;;-0.96;87.37;99468.38;133491;1300;22484;-77
2023/02/26 03:33:30;;;;;;;;;;;;;;;-0.97;87.04;99476.46;133627;1300;22604;-77
2023/02/26 03:36:37;;;;;;;;;;;;;;;-0.99;86.95;99489.09;133529;1303;22534;-77
2023/02/26 03:40:04;;;;;;;;;;;;;;;-1.01;87.11;99495.62;133539;1300;23211;-77
2023/02/26 03:43:13;;;;;;;;;;;;;;;-1.00;87.18;99499.77;133720;1300;23676;-77
2023/02/26 03:46:15;;;;;;;;;;;;;;;-1.00;87.17;99505.11;133534;1303;23132;-77
2023/02/26 03:49:28;;;;;;;;;;;;;;;-1.02;86.91;99515.86;133695;1300;22510;-77
2023/02/26 03:52:31;;;;;;;;;;;;;;;-1.04;86.96;99517.59;133581;1301;22515;-77
2023/02/26 03:55:59;;;;;;;;;;;;;;;-1.06;87.13;99524.27;133535;1301;23318;-77
2023/02/26 03:59:18;;;;;;;;;;;;;;;-1.07;86.94;99524.76;133705;1300;23122;-77
2023/02/26 04:02:37;;;;;;;;;;;;;;;-1.11;86.77;99521.55;133561;1303;22581;-76
2023/02/26 04:05:47;;;;;;;;;;;;;;;-1.15;86.64;99527.71;133611;1301;22491;-76
2023/02/26 04:08:48;;;;;;;;;;;;;;;-1.17;86.84;99536.36;133633;1300;22480;-77
2023/02/26 04:11:50;;;;;;;;;;;;;;;-1.18;86.68;99540.94;133675;1300;22504;-77
2023/02/26 04:14:50;;;;;;;;;;;;;;;-1.20;86.82;99541.20;133677;1301;22533;-77
2023/02/26 04:17:51;;;;;;;;;;;;;;;-1.20;87.06;99546.45;133548;1301;23187;-77
2023/02/26 04:20:51;;;;;;;;;;;;;;;-1.21;86.77;99547.90;133717;1300;22544;-77
2023/02/26 04:23:52;;;;;;;;;;;;;;;-1.22;86.90;99552.66;133685;1308;22509;-78
2023/02/26 04:26:53;;;;;;;;;;;;;;;-1.23;86.65;99560.20;133720;1300;22474;-77
2023/02/26 04:29:53;;;;;;;;;;;;;;;-1.24;86.97;99553.52;133668;1300;22516;-77
2023/02/26 04:32:54;;;;;;;;;;;;;;;-1.24;86.87;99560.27;133674;1300;22495;-77
2023/02/26 04:35:55;;;;;;;;;;;;;;;-1.23;86.86;99560.05;133602;1303;23211;-77
2023/02/26 04:38:55;;;;;;;;;;;;;;;-1.24;86.92;99565.48;133492;1303;22494;-77
2023/02/26 04:41:56;;;;;;;;;;;;;;;-1.26;86.71;99564.74;133594;1300;22615;-77
2023/02/26 04:44:58;;;;;;;;;;;;;;;-1.27;86.82;99566.56;133649;1301;24877;-77
2023/02/26 04:47:59;;;;;;;;;;;;;;;-1.27;87.14;99569.33;133690;1300;22568;-77
2023/02/26 04:51:00;;;;;;;;;;;;;;;-1.28;86.98;99564.69;133734;1300;22475;-77
2023/02/26 04:54:00;;;;;;;;;;;;;;;-1.29;86.76;99572.96;133704;1300;22492;-77
2023/02/26 04:57:01;;;;;;;;;;;;;;;-1.30;86.78;99582.05;133496;1301;23243;-77
2023/02/26 05:00:05;;;;;;;;;;;;;;;-1.31;86.81;99588.51;133693;1300;22494;-77
2023/02/26 05:03:08;;;;;;;;;;;;;;;-1.33;86.64;99585.34;133611;1301;23114;-77
2023/02/26 05:06:09;;;;;;;;;;;;;;;-1.33;86.87;99591.26;133702;1300;23352;-76
2023/02/26 05:09:10;;;;;;;;;;;;;;;-1.32;86.82;99600.05;133538;1300;22487;-77
2023/02/26 05:12:11;;;;;;;;;;;;;;;-1.33;87.00;99601.48;133693;1308;22639;-77
2023/02/26 05:15:12;;;;;;;;;;;;;;;-1.33;87.01;99604.60;133461;1309;22524;-77
2023/02/26 05:18:12;;;;;;;;;;;;;;;-1.33;86.95;99600.98;133589;1301;22473;-77
2023/02/26 05:21:12;;;;;;;;;;;;;;;-1.33;86.88;99612.45;133494;1303;22533;-77
2023/02/26 05:24:13;;;;;;;;;;;;;;;-1.35;86.78;99612.89;133506;1303;22518;-77
2023/02/26 05:27:15;;;;;;;;;;;;;;;-1.37;86.56;99614.91;133716;1300;22946;-76
2023/02/26 05:30:19;;;;;;;;;;;;;;;-1.39;86.56;99620.92;133456;1303;22528;-77
2023/02/26 05:33:19;;;;;;;;;;;;;;;-1.40;86.61;99623.31;133488;1294;22540;-77
2023/02/26 05:36:20;;;;;;;;;;;;;;;-1.42;86.54;99629.65;133719;1300;22495;-77
2023/02/26 05:39:20;;;;;;;;;;;;;;;-1.43;86.92;99632.70;133734;1300;22549;-77
2023/02/26 05:42:20;;;;;;;;;;;;;;;-1.44;86.77;99642.83;133684;1308;22542;-77
2023/02/26 05:45:21;;;;;;;;;;;;;;;-1.46;86.58;99649.89;133758;1285;22509;-76
2023/02/26 05:48:22;;;;;;;;;;;;;;;-1.45;86.88;99658.50;133740;1305;22548;-76
2023/02/26 05:51:22;;;;;;;;;;;;;;;-1.42;86.96;99663.52;133756;1307;23301;-76
2023/02/26 05:54:23;;;;;;;;;;;;;;;-1.42;86.68;99665.91;133724;1300;22495;-77
2023/02/26 05:57:23;;;;;;;;;;;;;;;-1.43;86.68;99674.67;133743;1300;22495;-77
2023/02/26 06:00:24;;;;;;;;;;;;;;;-1.44;86.45;99685.88;133714;1304;23272;-77
2023/02/26 06:03:25;;;;;;;;;;;;;;;-1.44;86.75;99686.91;133748;1300;22515;-76
2023/02/26 06:06:25;;;;;;;;;;;;;;;-1.44;86.71;99692.27;133796;1300;22510;-77
2023/02/26 06:09:26;;;;;;;;;;;;;;;-1.44;86.57;99699.89;133726;1300;22479;-76
2023/02/26 06:12:26;;;;;;;;;;;;;;;-1.42;86.74;99702.20;133570;1303;22514;-77
2023/02/26 06:15:27;;;;;;;;;;;;;;;-1.42;86.65;99709.14;133735;1300;22496;-76
2023/02/26 06:18:27;;;;;;;;;;;;;;;-1.43;86.73;99714.77;133758;1300;22493;-77
2023/02/26 06:21:28;;;;;;;;;;;;;;;-1.44;86.66;99721.42;133731;1300;22661;-76
2023/02/26 06:24:28;;;;;;;;;;;;;;;-1.43;86.78;99727.06;133746;1300;22484;-77
2023/02/26 06:27:29;;;;;;;;;;;;;;;-1.42;86.62;99729.07;133737;1300;22504;-76
2023/02/26 06:30:29;;;;;;;;;;;;;;;-1.42;86.61;99737.38;133697;1301;22815;-77
2023/02/26 06:33:30;;;;;;;;;;;;;;;-1.40;86.57;99740.78;133717;1300;22540;-76
2023/02/26 06:36:31;;;;;;;;;;;;;;;-1.40;86.50;99738.98;133757;1300;23271;-78
2023/02/26 06:39:31;;;;;;;;;;;;;;;-1.39;86.26;99746.44;133699;1300;22583;-75
2023/02/26 06:42:32;;;;;;;;;;;;;;;-1.38;86.21;99746.52;133719;1300;25240;-72
2023/02/26 06:45:32;;;;;;;;;;;;;;;-1.35;86.15;99751.21;133722;1300;22501;-74
2023/02/26 06:48:33;;;;;;;;;;;;;;;-1.31;86.26;99758.23;133757;1300;23321;-78
2023/02/26 06:51:33;;;;;;;;;;;;;;;-1.27;86.17;99759.89;133761;1300;22524;-73
2023/02/26 06:54:36;;;;;;;;;;;;;;;-1.24;85.79;99766.80;133715;1300;22498;-76
2023/02/26 06:57:37;;;;;;;;;;;;;;;-1.21;85.97;99768.88;133499;1301;22546;-74
2023/02/26 07:00:38;;;;;;;;;;;;;;;-1.16;85.83;99772.54;133592;1302;22584;-75
2023/02/26 07:03:38;;;;;;;;;;;;;;;-1.11;85.99;99776.70;133722;1300;22819;-75
2023/02/26 07:06:39;;;;;;;;;;;;;;;-1.06;85.78;99787.12;133728;1294;22866;-76
2023/02/26 07:09:39;;;;;;;;;;;;;;;-1.01;85.96;99792.86;133680;1300;23228;-75
2023/02/26 07:12:40;;;;;;;;;;;;;;;-0.96;85.64;99797.27;133682;1300;22489;-75
2023/02/26 07:15:40;;;;;;;;;;;;;;;-0.95;85.26;99802.00;133488;1300;22512;-75
2023/02/26 07:18:41;;;;;;;;;;;;;;;-0.94;85.46;99809.75;133727;1300;22494;-76
2023/02/26 07:21:47;;;;;;;;;;;;;;;-0.92;85.14;99813.16;133643;1297;22507;-75
2023/02/26 07:24:49;;;;;;;;;;;;;;;-0.93;84.93;99819.98;133604;1301;22494;-76
2023/02/26 07:27:49;;;;;;;;;;;;;;;-0.94;84.91;99823.33;133453;1300;22560;-79
2023/02/26 07:30:52;;;;;;;;;;;;;;;-0.95;85.02;99829.11;133660;1300;22541;-75
2023/02/26 07:33:55;;;;;;;;;;;;;;;-0.95;84.93;99838.69;133673;1300;22481;-74
2023/02/26 07:36:58;;;;;;;;;;;;;;;-0.93;84.95;99845.64;133674;1300;22589;-75
2023/02/26 07:39:58;;;;;;;;;;;;;;;-0.89;84.93;99845.44;133486;1300;22484;-75
2023/02/26 07:42:59;;;;;;;;;;;;;;;-0.84;85.38;99851.73;133666;1300;22551;-74
2023/02/26 07:45:59;;;;;;;;;;;;;;;-0.80;85.30;99855.92;133438;1301;22541;-74
2023/02/26 07:48:59;;;;;;;;;;;;;;;-0.78;85.20;99856.18;133678;1300;23376;-75
2023/02/26 07:52:00;;;;;;;;;;;;;;;-0.79;85.07;99857.59;133579;1303;22486;-75
2023/02/26 07:55:01;;;;;;;;;;;;;;;-0.77;85.09;99864.43;133558;1300;165520;-75
2023/02/26 07:58:01;;;;;;;;;;;;;;;-0.78;84.82;99875.44;133676;1300;24472;-75
2023/02/26 08:01:02;;;;;;;;;;;;;;;-0.79;84.58;99879.33;133708;1300;22498;-75
2023/02/26 08:04:03;;;;;;;;;;;;;;;-0.79;84.43;99890.82;133646;1300;22471;-75
2023/02/26 08:07:06;;;;;;;;;;;;;;;-0.78;84.93;99887.45;133471;1303;22494;-75
2023/02/26 08:10:07;;;;;;;;;;;;;;;-0.76;84.89;99894.20;133659;1300;22601;-77
2023/02/26 08:13:10;;;;;;;;;;;;;;;-0.72;85.16;99896.77;133700;1300;22489;-76
2023/02/26 08:16:13;;;;;;;;;;;;;;;-0.66;85.54;99894.63;133793;1300;22566;-80
2023/02/26 08:19:14;;;;;;;;;;;;;;;-0.60;85.14;99888.67;133616;1300;22507;-77
2023/02/26 08:22:14;;;;;;;;;;;;;;;-0.58;84.84;99886.11;133624;1300;22534;-76
2023/02/26 08:25:15;;;;;;;;;;;;;;;-0.56;84.80;99893.82;133628;1300;22513;-77
2023/02/26 08:28:16;;;;;;;;;;;;;;;-0.55;84.97;99907.13;133635;1300;22500;-77
2023/02/26 08:31:16;;;;;;;;;;;;;;;-0.52;85.07;99913.85;133617;1300;22847;-78
2023/02/26 08:34:17;;;;;;;;;;;;;;;-0.47;85.05;99918.56;133627;1300;22600;-78
2023/02/26 08:37:20;;;;;;;;;;;;;;;-0.42;85.06;99934.96;133421;1300;22540;-78
2023/02/26 08:40:21;;;;;;;;;;;;;;;-0.42;84.54;99936.88;133640;1300;22583;-78
2023/02/26 08:43:21;;;;;;;;;;;;;;;-0.44;84.74;99943.60;133636;1300;22534;-78
2023/02/26 08:46:22;;;;;;;;;;;;;;;-0.41;84.66;99947.54;133639;1300;22831;-78
2023/02/26 08:49:22;;;;;;;;;;;;;;;-0.39;84.56;99951.26;133653;1300;25870;-78
2023/02/26 08:52:23;;;;;;;;;;;;;;;-0.37;84.59;99952.84;133659;1300;22517;-78
2023/02/26 08:55:24;;;;;;;;;;;;;;;-0.37;84.34;99953.54;133662;1300;22581;-77
2023/02/26 08:58:25;;;;;;;;;;;;;;;-0.33;84.51;99959.02;133641;1300;22491;-76
2023/02/26 09:01:25;;;;;;;;;;;;;;;-0.26;84.52;99961.83;133683;1300;22548;-79
2023/02/26 09:04:27;;;;;;;;;;;;;;;-0.20;84.12;99967.02;133701;1300;22515;-79
2023/02/26 09:07:27;;;;;;;;;;;;;;;-0.17;84.04;99972.56;133669;1300;23286;-80
2023/02/26 09:10:28;;;;;;;;;;;;;;;-0.11;84.20;99975.42;133674;1300;23242;-81
2023/02/26 09:13:29;;;;;;;;;;;;;;;-0.03;84.00;99985.55;133665;1300;22517;-80
2023/02/26 09:16:29;;;;;;;;;;;;;;;0.00;83.75;99994.17;133600;1301;22515;-83
2023/02/26 09:19:30;;;;;;;;;;;;;;;0.06;84.10;99995.19;133454;1303;23319;-80
2023/02/26 09:22:31;;;;;;;;;;;;;;;0.10;83.88;99998.90;133612;1302;22503;-81
2023/02/26 09:25:31;;;;;;;;;;;;;;;0.10;83.13;100004.85;133595;1302;22472;-82
2023/02/26 09:28:32;;;;;;;;;;;;;;;0.08;82.79;100007.79;133579;1303;22507;-81
2023/02/26 09:31:32;;;;;;;;;;;;;;;0.11;83.22;100019.02;133617;1302;22514;-81
2023/02/26 09:34:37;;;;;;;;;;;;;;;0.20;83.41;100020.34;133549;1302;22477;-81
2023/02/26 09:37:38;;;;;;;;;;;;;;;0.29;83.18;100024.30;133619;1303;22483;-81
2023/02/26 09:40:39;;;;;;;;;;;;;;;0.37;83.26;100029.63;133594;1303;23579;-80
2023/02/26 09:43:56;;;;;;;;;;;;;;;0.42;82.59;100035.05;133563;1303;22659;-82
2023/02/26 09:47:12;;;;;;;;;;;;;;;0.42;82.34;100046.00;133621;1302;22554;-80
2023/02/26 09:50:17;;;;;;;;;;;;;;;0.47;82.48;100044.50;133602;1302;22567;-83
2023/02/26 09:53:20;;;;;;;;;;;;;;;0.49;82.23;100049.08;133586;1302;22598;-77
2023/02/26 09:56:24;;;;;;;;;;;;;;;0.47;82.02;100058.59;133452;1303;22524;-81
2023/02/26 09:59:26;;;;;;;;;;;;;;;0.50;82.30;100061.14;133618;1303;22511;-83
2023/02/26 10:02:37;;;;;;;;;;;;;;;0.54;81.98;100068.69;133591;1302;22493;-83
2023/02/26 10:05:58;;;;;;;;;;;;;;;0.64;82.51;100073.91;133581;1301;22634;-81
2023/02/26 10:09:20;;;;;;;;;;;;;;;0.65;81.71;100078.05;133260;1302;22526;-81
2023/02/26 10:12:23;;;;;;;;;;;;;;;0.68;82.15;100076.11;133560;1303;22558;-83
2023/02/26 10:15:36;;;;;;;;;;;;;;;0.71;81.96;100079.59;133604;1302;23264;-80
2023/02/26 10:18:41;;;;;;;;;;;;;;;0.66;81.20;100080.63;133439;1299;22547;-81
2023/02/26 10:21:47;;;;;;;;;;;;;;;0.65;81.75;100085.00;133699;1300;22472;-82
2023/02/26 10:24:51;;;;;;;;;;;;;;;0.72;81.77;100084.16;133663;1300;23340;-82
2023/02/26 10:28:11;;;;;;;;;;;;;;;0.77;81.60;100089.39;133730;1300;22531;-81
2023/02/26 10:31:17;;;;;;;;;;;;;;;0.82;81.74;100092.23;133734;1300;22497;-80
2023/02/26 10:34:24;;;;;;;;;;;;;;;0.84;81.13;100098.51;133752;1300;23917;-80
2023/02/26 10:37:46;;;;;;;;;;;;;;;0.89;81.48;100102.88;133544;1294;22480;-80
2023/02/26 10:40:54;;;;;;;;;;;;;;;1.00;81.37;100107.41;133741;1301;22479;-81
2023/02/26 10:43:54;;;;;;;;;;;;;;;1.01;81.16;100113.41;133668;1300;22497;-80
2023/02/26 10:46:55;;;;;;;;;;;;;;;1.02;81.30;100112.84;133754;1300;22522;-83
2023/02/26 10:49:59;;;;;;;;;;;;;;;0.98;80.96;100119.88;133751;1300;23288;-82
2023/02/26 10:52:59;;;;;;;;;;;;;;;0.99;80.98;100120.34;133750;1300;22503;-82
2023/02/26 10:56:29;;;;;;;;;;;;;;;1.09;81.48;100121.73;133724;1300;23262;-80
2023/02/26 10:59:30;;;;;;;;;;;;;;;1.31;81.78;100124.38;133521;1301;22499;-82
2023/02/26 11:02:31;;;;;;;;;;;;;;;1.59;81.73;100123.45;133756;1300;22471;-81
2023/02/26 11:05:34;;;;;;;;;;;;;;;1.80;80.25;100125.79;133731;1300;22497;-82
2023/02/26 11:08:42;;;;;;;;;;;;;;;1.80;79.81;100132.77;133719;1300;23287;-82
2023/02/26 11:11:47;;;;;;;;;;;;;;;1.76;79.94;100125.72;133761;1301;22504;-82
2023/02/26 11:14:48;;;;;;;;;;;;;;;1.67;79.56;100135.61;133645;1300;22493;-82
2023/02/26 11:17:53;;;;;;;;;;;;;;;1.59;79.91;100135.48;133651;1300;22957;-81
2023/02/26 11:20:58;;;;;;;;;;;;;;;1.53;79.91;100135.89;133572;1300;23168;-82
2023/02/26 11:24:05;;;;;;;;;;;;;;;1.49;79.85;100144.77;133516;1300;22598;-78
2023/02/26 11:27:11;;;;;;;;;;;;;;;1.44;79.35;100145.24;133695;1300;23355;-82
2023/02/26 11:30:17;;;;;;;;;;;;;;;1.32;78.58;100144.33;133735;1300;22572;-81
2023/02/26 11:33:21;;;;;;;;;;;;;;;1.25;78.83;100149.39;133684;1301;22623;-82
2023/02/26 11:36:23;;;;;;;;;;;;;;;1.25;78.79;100155.98;133810;1300;22492;-84
2023/02/26 11:39:28;;;;;;;;;;;;;;;1.29;78.80;100160.58;133743;1300;23158;-81
2023/02/26 11:42:34;;;;;;;;;;;;;;;1.33;78.99;100166.52;133686;1300;22520;-83
2023/02/26 11:45:40;;;;;;;;;;;;;;;1.44;79.59;100171.93;133739;1300;22550;-83
2023/02/26 11:48:48;;;;;;;;;;;;;;;1.53;78.96;100178.94;133750;1300;22582;-84
2023/02/26 11:52:00;;;;;;;;;;;;;;;1.49;78.26;100181.33;133714;1300;22491;-83
2023/02/26 11:55:03;;;;;;;;;;;;;;;1.44;77.83;100177.89;133715;1300;22548;-83
2023/02/26 11:58:13;;;;;;;;;;;;;;;1.48;78.46;100181.23;133717;1300;22482;-83
2023/02/26 12:01:15;;;;;;;;;;;;;;;1.66;78.43;100180.01;133702;1300;23300;-82
2023/02/26 12:04:21;;;;;;;;;;;;;;;1.80;77.74;100179.16;133458;1301;22517;-83
2023/02/26 12:07:21;;;;;;;;;;;;;;;2.01;78.21;100182.52;133714;1300;22503;-83
2023/02/26 12:10:32;;;;;;;;;;;;;;;2.18;77.16;100183.74;133769;1300;22531;-83
2023/02/26 12:13:39;;;;;;;;;;;;;;;2.21;76.61;100188.20;133731;1300;22487;-84
2023/02/26 12:16:40;;;;;;;;;;;;;;;2.27;76.99;100184.00;133706;1300;22485;-83
2023/02/26 12:19:55;;;;;;;;;;;;;;;2.24;76.17;100185.79;133755;1300;22475;-83
2023/02/26 12:22:56;;;;;;;;;;;;;;;2.19;77.27;100183.15;133740;1300;23369;-79
2023/02/26 12:26:04;;;;;;;;;;;;;;;2.24;77.44;100187.64;133711;1300;23712;-84
2023/02/26 12:29:14;;;;;;;;;;;;;;;2.30;77.47;100188.52;133684;1303;22576;-80
2023/02/26 12:32:15;;;;;;;;;;;;;;;2.33;75.77;100186.17;133740;1300;22503;-81
2023/02/26 12:35:33;;;;;;;;;;;;;;;2.33;75.82;100193.00;133768;1297;22539;-83
2023/02/26 12:38:42;;;;;;;;;;;;;;;2.30;75.83;100196.70;133704;1300;22525;-81
2023/02/26 12:41:49;;;;;;;;;;;;;;;2.27;75.94;100205.27;133679;1301;22528;-81
2023/02/26 12:44:51;;;;;;;;;;;;;;;2.21;76.38;100206.37;133704;1300;22588;-84
2023/02/26 12:48:06;;;;;;;;;;;;;;;2.18;76.77;100204.52;133696;1300;22488;-84
2023/02/26 12:51:22;;;;;;;;;;;;;;;2.17;77.06;100211.02;133721;1302;22483;-82
2023/02/26 12:54:37;;;;;;;;;;;;;;;2.21;76.26;100212.86;133619;1300;22496;-82
2023/02/26 12:57:53;;;;;;;;;;;;;;;2.25;76.56;100216.05;133709;1291;22519;-82
2023/02/26 13:00:58;;;;;;;;;;;;;;;2.32;75.31;100217.64;133506;1301;23252;-82
2023/02/26 13:04:17;;;;;;;;;;;;;;;2.34;75.28;100218.91;133656;1301;22477;-82
2023/02/26 13:07:31;;;;;;;;;;;;;;;2.33;75.03;100221.48;133687;1300;22485;-82
2023/02/26 13:10:46;;;;;;;;;;;;;;;2.24;74.43;100226.23;133468;1301;22494;-82
2023/02/26 13:13:52;;;;;;;;;;;;;;;2.22;75.22;100222.91;133432;1301;22535;-81
2023/02/26 13:16:55;;;;;;;;;;;;;;;2.26;74.69;100228.89;133676;1300;22491;-82
2023/02/26 13:20:02;;;;;;;;;;;;;;;2.39;74.92;100227.58;133621;1300;23149;-81
2023/02/26 13:23:08;;;;;;;;;;;;;;;2.64;75.17;100229.06;133676;1300;22495;-82
2023/02/26 13:26:10;;;;;;;;;;;;;;;2.84;74.27;100230.05;133676;1300;23219;-82
2023/02/26 13:29:13;;;;;;;;;;;;;;;2.89;74.26;100237.91;133614;1300;22514;-82
2023/02/26 13:32:17;;;;;;;;;;;;;;;2.78;74.14;100242.55;133681;1300;22564;-81
2023/02/26 13:35:18;;;;;;;;;;;;;;;2.58;73.80;100244.91;133657;1300;22774;-81
2023/02/26 13:38:37;;;;;;;;;;;;;;;2.53;74.87;100247.41;133678;1300;22606;-81
2023/02/26 13:41:59;;;;;;;;;;;;;;;2.51;74.25;100251.04;133649;1300;22479;-81
2023/02/26 13:44:59;;;;;;;;;;;;;;;2.42;73.19;100251.33;133656;1300;22529;-80
2023/02/26 13:48:07;;;;;;;;;;;;;;;2.30;71.99;100253.25;133663;1300;22483;-82
2023/02/26 13:51:14;;;;;;;;;;;;;;;2.13;72.14;100259.83;133688;1300;22595;-82
2023/02/26 13:54:16;;;;;;;;;;;;;;;1.99;72.28;100263.27;133667;1300;22518;-81
2023/02/26 13:57:31;;;;;;;;;;;;;;;1.97;73.52;100262.55;133669;1300;23097;-78
2023/02/26 14:00:33;;;;;;;;;;;;;;;2.07;73.33;100259.59;133756;1300;22551;-77
2023/02/26 14:03:52;;;;;;;;;;;;;;;2.18;73.53;100264.23;133722;1301;22567;-79
2023/02/26 14:06:57;;;;;;;;;;;;;;;2.27;73.22;100266.21;133716;1301;22485;-89
2023/02/26 14:10:05;;;;;;;;;;;;;;;2.23;73.69;100283.10;133674;1301;23164;-76
2023/02/26 14:13:18;;;;;;;;;;;;;;;1.90;74.39;100294.13;133514;1300;23319;-77
2023/02/26 14:16:22;;;;;;;;;;;;;;;1.30;76.23;100310.78;133659;1301;22497;-77
2023/02/26 14:19:32;;;;;;;;;;;;;;;0.79;78.29;100298.26;133662;1300;22522;-76
2023/02/26 14:22:34;;;;;;;;;;;;;;;0.41;78.97;100303.63;133631;1289;22484;-76
2023/02/26 14:25:37;;;;;;;;;;;;;;;0.27;79.37;100303.49;133660;1300;22515;-76
2023/02/26 14:28:54;;;;;;;;;;;;;;;0.24;79.48;100306.64;133648;1300;22520;-79
2023/02/26 14:31:55;;;;;;;;;;;;;;;0.31;80.35;100304.29;133632;1301;23511;-77
2023/02/26 14:34:58;;;;;;;;;;;;;;;0.44;80.73;100304.30;133654;1301;22496;-78
2023/02/26 14:38:20;;;;;;;;;;;;;;;0.66;81.35;100305.52;133652;1301;22492;-81
2023/02/26 14:41:32;;;;;;;;;;;;;;;0.88;81.18;100307.61;133674;1300;22523;-83
2023/02/26 14:44:43;;;;;;;;;;;;;;;1.01;80.63;100306.92;133599;1301;22502;-81
2023/02/26 14:47:44;;;;;;;;;;;;;;;1.04;79.51;100310.57;133641;1305;23136;-77
2023/02/26 14:50:57;;;;;;;;;;;;;;;1.02;78.59;100313.67;133630;1300;22479;-79
2023/02/26 14:54:27;;;;;;;;;;;;;;;1.00;77.34;100313.59;133593;1300;22546;-77
2023/02/26 14:57:27;;;;;;;;;;;;;;;1.05;77.99;100317.64;133552;1297;22484;-74
2023/02/26 15:00:34;;;;;;;;;;;;;;;1.13;77.79;100319.56;133668;1300;22513;-83
2023/02/26 15:03:43;;;;;;;;;;;;;;;1.21;77.44;100319.71;133674;1301;22484;-85
2023/02/26 15:06:50;;;;;;;;;;;;;;;1.26;76.87;100321.79;133682;1300;22518;-86
2023/02/26 15:10:02;;;;;;;;;;;;;;;1.33;76.54;100325.52;133814;1300;22510;-82
2023/02/26 15:13:17;;;;;;;;;;;;;;;1.34;75.93;100332.11;133827;1301;22542;-81
2023/02/26 15:16:33;;;;;;;;;;;;;;;1.34;75.21;100334.86;133701;1300;22487;-89
2023/02/26 15:19:43;;;;;;;;;;;;;;;1.36;75.60;100344.17;133655;1298;22494;-86
2023/02/26 15:22:44;;;;;;;;;;;;;;;1.42;75.66;100346.21;133723;1302;23233;-84
2023/02/26 15:25:46;;;;;;;;;;;;;;;1.49;74.93;100348.03;133715;1300;23729;-85
2023/02/26 15:28:47;;;;;;;;;;;;;;;1.50;74.27;100353.68;133708;1301;23146;-86
2023/02/26 15:31:52;;;;;;;;;;;;;;;1.55;74.64;100357.01;133533;1302;23571;-89
2023/02/26 15:34:56;;;;;;;;;;;;;;;1.56;74.08;100359.91;133628;1302;22489;-88
2023/02/26 15:37:59;;;;;;;;;;;;;;;1.53;73.87;100362.01;133722;1300;22538;-88
2023/02/26 15:41:01;;;;;;;;;;;;;;;1.49;73.37;100364.08;133714;1301;23149;-86
2023/02/26 15:44:05;;;;;;;;;;;;;;;1.45;74.18;100371.29;133632;1301;22480;-88
2023/02/26 15:47:06;;;;;;;;;;;;;;;1.46;74.37;100378.72;133674;1301;22469;-84
2023/02/26 15:50:09;;;;;;;;;;;;;;;1.44;74.03;100380.96;133670;1300;23382;-86